Time;durP1;ratioP1;P1;durP2;ratioP2;P2;SDS_P1;SDS_P2;PMS_P1;PMS_P2;Temp;Humidity;BMP_temperature;BMP_pressure;BME280_temperature;BME280_humidity;BME280_pressure;Samples;Min_cycle;Max_cycle;Signal;HPM_P1;HPM_P2
2023/10/31 00:02:09;;;;;;;18.67;7.88;;;11.00;99.90;;;;;;5028989;28;20037;-80
2023/10/31 00:04:35;;;;;;;17.02;7.75;;;11.00;99.90;;;;;;5029981;23;20575;-71
2023/10/31 00:07:00;;;;;;;16.45;6.70;;;11.00;99.90;;;;;;5002317;28;20042;-77
2023/10/31 00:09:26;;;;;;;15.35;6.55;;;11.00;99.90;;;;;;5003466;28;20081;-78
2023/10/31 00:11:51;;;;;;;24.33;8.15;;;11.00;99.90;;;;;;5009593;28;20033;-75
2023/10/31 00:14:17;;;;;;;21.00;6.95;;;11.00;99.90;;;;;;5007520;28;20115;-72
2023/10/31 00:16:43;;;;;;;37.97;8.48;;;11.00;99.90;;;;;;5004690;28;20045;-71
2023/10/31 00:19:08;;;;;;;21.48;6.90;;;11.00;99.90;;;;;;4994421;28;20435;-72
2023/10/31 00:21:34;;;;;;;18.52;6.45;;;11.00;99.90;;;;;;5006327;28;20065;-74
2023/10/31 00:23:59;;;;;;;22.30;7.28;;;11.00;99.90;;;;;;5000537;28;20041;-73
2023/10/31 00:26:25;;;;;;;30.52;7.22;;;11.00;99.90;;;;;;5011504;28;20397;-73
2023/10/31 00:28:50;;;;;;;23.15;7.57;;;11.00;99.90;;;;;;5004037;28;20488;-74
2023/10/31 00:31:17;;;;;;;22.40;7.63;;;11.00;99.90;;;;;;5010615;28;20552;-73
2023/10/31 00:33:43;;;;;;;32.92;8.27;;;11.00;99.90;;;;;;5008407;28;20042;-74
2023/10/31 00:36:08;;;;;;;23.33;7.35;;;11.00;99.90;;;;;;5008635;28;20358;-74
2023/10/31 00:38:34;;;;;;;20.15;8.02;;;11.00;99.90;;;;;;4988969;28;20140;-75
2023/10/31 00:41:00;;;;;;;20.15;7.38;;;11.00;99.90;;;;;;4991458;28;20050;-74
2023/10/31 00:43:25;;;;;;;15.82;7.20;;;11.00;99.90;;;;;;4993002;28;20041;-74
2023/10/31 00:45:51;;;;;;;17.90;7.20;;;11.00;99.90;;;;;;4974813;28;20038;-74
2023/10/31 00:48:16;;;;;;;13.73;6.78;;;11.00;99.90;;;;;;4985571;28;20033;-75
2023/10/31 00:50:43;;;;;;;18.92;7.35;;;11.00;99.90;;;;;;4978779;28;20128;-75
2023/10/31 00:53:09;;;;;;;16.75;7.18;;;11.00;99.90;;;;;;4988545;28;20050;-73
2023/10/31 00:55:34;;;;;;;21.90;7.82;;;11.00;99.90;;;;;;4990655;28;20034;-75
2023/10/31 00:58:00;;;;;;;29.08;8.02;;;11.00;99.90;;;;;;4991561;28;20041;-74
2023/10/31 01:00:25;;;;;;;17.73;7.00;;;11.00;99.90;;;;;;4995360;28;20490;-74
2023/10/31 01:02:51;;;;;;;25.88;7.40;;;11.00;99.90;;;;;;4990265;28;20068;-72
2023/10/31 01:05:17;;;;;;;14.48;7.03;;;11.00;99.90;;;;;;4969337;28;20046;-73
2023/10/31 01:07:42;;;;;;;20.10;7.40;;;11.00;99.90;;;;;;4986910;28;20066;-73
2023/10/31 01:10:08;;;;;;;21.73;7.40;;;11.10;99.90;;;;;;4970260;28;20379;-73
2023/10/31 01:12:34;;;;;;;18.92;6.68;;;11.10;99.90;;;;;;4987910;28;20095;-72
2023/10/31 01:15:00;;;;;;;27.75;7.13;;;11.00;99.90;;;;;;4986774;28;20051;-73
2023/10/31 01:17:25;;;;;;;16.33;5.60;;;11.00;99.90;;;;;;4972834;28;20676;-72
2023/10/31 01:19:51;;;;;;;9.77;3.85;;;11.00;99.90;;;;;;4989506;28;20046;-72
2023/10/31 01:22:16;;;;;;;3.45;1.85;;;10.90;99.90;;;;;;4990743;28;20462;-72
2023/10/31 01:24:42;;;;;;;3.65;1.15;;;10.90;99.90;;;;;;4990016;28;20475;-72
2023/10/31 01:27:08;;;;;;;3.75;1.15;;;10.80;99.90;;;;;;4974558;28;20062;-74
2023/10/31 01:29:33;;;;;;;2.50;0.95;;;10.50;99.90;;;;;;4969051;28;20052;-72
2023/10/31 01:31:59;;;;;;;2.38;0.88;;;10.70;99.90;;;;;;4981050;28;20039;-74
2023/10/31 01:34:24;;;;;;;4.80;0.80;;;10.70;99.90;;;;;;4977864;28;20046;-73
2023/10/31 01:36:50;;;;;;;4.50;0.80;;;10.60;99.90;;;;;;4986345;28;20492;-72
2023/10/31 01:39:15;;;;;;;1.67;0.60;;;10.60;99.90;;;;;;4986730;28;20398;-72
2023/10/31 01:41:42;;;;;;;3.47;0.70;;;10.30;99.90;;;;;;4971176;28;20097;-73
2023/10/31 01:44:08;;;;;;;3.28;1.00;;;10.40;99.90;;;;;;4973734;28;20087;-73
2023/10/31 01:46:34;;;;;;;5.10;1.08;;;10.20;99.90;;;;;;4967093;28;20117;-74
2023/10/31 01:49:00;;;;;;;2.55;0.75;;;10.40;99.90;;;;;;4987994;28;20141;-73
2023/10/31 01:51:26;;;;;;;2.40;0.80;;;10.30;99.90;;;;;;4986578;28;20045;-76
2023/10/31 01:53:52;;;;;;;1.20;0.60;;;10.40;99.90;;;;;;4982585;28;20047;-73
2023/10/31 01:56:19;;;;;;;2.40;0.70;;;10.20;99.90;;;;;;4981746;28;20835;-73
2023/10/31 01:58:46;;;;;;;2.30;0.73;;;10.20;99.90;;;;;;4989603;28;20475;-73
2023/10/31 02:01:12;;;;;;;3.05;0.65;;;10.10;99.90;;;;;;4979707;28;20849;-72
2023/10/31 02:03:38;;;;;;;5.72;1.00;;;10.20;99.90;;;;;;4985299;28;20050;-72
2023/10/31 02:06:04;;;;;;;3.10;0.90;;;10.10;99.90;;;;;;5004089;28;21223;-73
2023/10/31 02:08:30;;;;;;;3.80;0.88;;;10.00;99.90;;;;;;4989187;28;20520;-75
2023/10/31 02:10:56;;;;;;;5.05;0.70;;;10.00;99.90;;;;;;4989812;28;20038;-73
2023/10/31 02:13:22;;;;;;;2.88;0.90;;;9.90;99.90;;;;;;4991080;28;20044;-74
2023/10/31 02:15:47;;;;;;;3.05;1.08;;;10.20;99.90;;;;;;4986827;28;20121;-73
2023/10/31 02:18:13;;;;;;;5.60;0.80;;;10.10;99.90;;;;;;4982546;28;20114;-74
2023/10/31 02:20:39;;;;;;;5.05;0.80;;;9.90;99.90;;;;;;4979708;28;20049;-79
2023/10/31 02:23:05;;;;;;;5.10;1.23;;;10.00;99.90;;;;;;4990770;28;20491;-75
2023/10/31 02:25:31;;;;;;;8.43;0.90;;;9.80;99.90;;;;;;4987053;28;20042;-78
2023/10/31 02:27:57;;;;;;;5.68;1.10;;;9.80;99.90;;;;;;4976472;28;20049;-77
2023/10/31 02:30:23;;;;;;;6.90;1.08;;;9.80;99.90;;;;;;4990060;28;20144;-73
2023/10/31 02:32:49;;;;;;;8.02;1.13;;;9.80;99.90;;;;;;5000522;28;20048;-75
2023/10/31 02:35:17;;;;;;;6.05;1.13;;;9.80;99.90;;;;;;4988571;28;20037;-75
2023/10/31 02:37:43;;;;;;;7.82;0.90;;;9.90;99.90;;;;;;4969767;28;20041;-73
2023/10/31 02:40:09;;;;;;;7.20;0.93;;;9.70;99.90;;;;;;4990513;28;20354;-76
2023/10/31 02:42:35;;;;;;;5.65;1.25;;;9.90;99.90;;;;;;4986244;28;20034;-73
2023/10/31 02:45:01;;;;;;;2.63;0.95;;;9.60;99.90;;;;;;4983735;28;20096;-75
2023/10/31 02:47:26;;;;;;;6.43;1.15;;;9.70;99.90;;;;;;4988401;28;20540;-70
2023/10/31 02:49:52;;;;;;;4.30;1.35;;;9.70;99.90;;;;;;4985750;28;20510;-73
2023/10/31 02:52:17;;;;;;;2.83;1.20;;;9.70;99.90;;;;;;4987161;28;20132;-75
2023/10/31 02:54:43;;;;;;;37.90;2.45;;;9.60;99.90;;;;;;4990122;28;20045;-74
2023/10/31 02:57:09;;;;;;;3.00;0.95;;;9.60;99.90;;;;;;4987453;28;20037;-75
2023/10/31 02:59:35;;;;;;;3.63;1.13;;;9.90;99.90;;;;;;4990632;28;20042;-72
2023/10/31 03:02:01;;;;;;;4.72;1.08;;;9.70;99.90;;;;;;4990228;28;20208;-72
2023/10/31 03:04:26;;;;;;;5.35;0.77;;;9.70;99.90;;;;;;4987903;28;20542;-74
2023/10/31 03:06:52;;;;;;;4.10;1.02;;;9.60;99.90;;;;;;5003774;28;20078;-72
2023/10/31 03:09:18;;;;;;;2.67;0.82;;;9.80;99.90;;;;;;4992863;28;20067;-71
2023/10/31 03:11:43;;;;;;;2.85;0.93;;;9.70;99.90;;;;;;4974602;28;20111;-72
2023/10/31 03:14:09;;;;;;;4.20;1.20;;;9.60;99.90;;;;;;4993243;28;20434;-75
2023/10/31 03:16:34;;;;;;;4.10;1.63;;;9.70;99.90;;;;;;4983834;28;20045;-71
2023/10/31 03:19:00;;;;;;;8.10;1.77;;;9.70;99.90;;;;;;4996265;28;20462;-74
2023/10/31 03:21:26;;;;;;;7.22;1.58;;;9.60;99.90;;;;;;4976062;28;20248;-75
2023/10/31 03:23:55;;;;;;;7.18;1.98;;;9.80;99.90;;;;;;4981722;28;20066;-72
2023/10/31 03:26:22;;;;;;;4.37;1.77;;;9.50;99.90;;;;;;4984482;28;20044;-73
2023/10/31 03:28:47;;;;;;;6.22;1.73;;;9.40;99.90;;;;;;4992244;28;20049;-73
2023/10/31 03:31:14;;;;;;;6.28;1.90;;;9.50;99.90;;;;;;4987230;28;20328;-74
2023/10/31 03:33:40;;;;;;;5.78;2.10;;;9.60;99.90;;;;;;4985358;28;20077;-73
2023/10/31 03:36:06;;;;;;;7.40;2.47;;;9.50;99.90;;;;;;4981142;28;20129;-73
2023/10/31 03:38:32;;;;;;;11.95;3.10;;;9.40;99.90;;;;;;4966935;28;20114;-77
2023/10/31 03:40:58;;;;;;;6.15;2.38;;;9.40;99.90;;;;;;4985863;28;20141;-72
2023/10/31 03:43:23;;;;;;;6.05;2.42;;;9.40;99.90;;;;;;4980676;28;20168;-73
2023/10/31 03:45:49;;;;;;;6.80;2.75;;;9.50;99.90;;;;;;4976067;28;20172;-76
2023/10/31 03:48:16;;;;;;;4.78;2.60;;;9.50;99.90;;;;;;4986034;28;20041;-74
2023/10/31 03:50:42;;;;;;;9.05;3.30;;;9.60;99.90;;;;;;4994273;28;20053;-73
2023/10/31 03:53:07;;;;;;;7.65;3.03;;;9.40;99.90;;;;;;4990943;28;20383;-73
2023/10/31 03:55:33;;;;;;;6.85;3.20;;;9.50;99.90;;;;;;4993876;28;20038;-72
2023/10/31 03:57:59;;;;;;;8.50;3.42;;;9.60;99.90;;;;;;4985791;28;20619;-74
2023/10/31 04:00:24;;;;;;;9.48;2.92;;;9.50;99.90;;;;;;4983382;28;20529;-74
2023/10/31 04:02:50;;;;;;;7.07;3.28;;;9.40;99.90;;;;;;4978915;28;20041;-74
2023/10/31 04:05:15;;;;;;;10.02;3.92;;;9.60;99.90;;;;;;4990088;28;20198;-74
2023/10/31 04:07:47;;;;;;;8.77;3.83;;;9.50;99.90;;;;;;4991205;28;20129;-75
2023/10/31 04:10:13;;;;;;;9.15;3.50;;;9.80;99.90;;;;;;4989966;28;20038;-73
2023/10/31 04:12:39;;;;;;;11.10;3.80;;;9.70;99.90;;;;;;4966417;28;20476;-73
2023/10/31 04:15:05;;;;;;;11.48;3.75;;;9.70;99.90;;;;;;4991886;28;20038;-73
2023/10/31 04:17:31;;;;;;;6.93;3.25;;;9.40;99.90;;;;;;4987919;28;20435;-75
2023/10/31 04:19:56;;;;;;;8.85;3.60;;;9.60;99.90;;;;;;4968259;28;20077;-73
2023/10/31 04:22:22;;;;;;;10.15;4.22;;;9.60;99.90;;;;;;4987459;28;20459;-76
2023/10/31 04:24:47;;;;;;;14.40;3.72;;;9.60;99.90;;;;;;4991717;28;20644;-75
2023/10/31 04:27:13;;;;;;;7.13;3.40;;;9.60;99.90;;;;;;4991116;28;20033;-72
2023/10/31 04:29:39;;;;;;;10.50;4.20;;;9.70;99.90;;;;;;4992519;28;20038;-74
2023/10/31 04:32:05;;;;;;;8.82;3.25;;;9.60;99.90;;;;;;4989016;28;20455;-72
2023/10/31 04:34:30;;;;;;;9.65;2.97;;;9.70;99.90;;;;;;4969342;28;20037;-74
2023/10/31 04:36:56;;;;;;;7.07;2.92;;;9.70;99.90;;;;;;4985897;28;20092;-74
2023/10/31 04:39:21;;;;;;;8.68;3.42;;;9.60;99.90;;;;;;4977857;28;20061;-73
2023/10/31 04:41:47;;;;;;;5.43;3.05;;;9.60;99.90;;;;;;4989103;28;20055;-73
2023/10/31 04:44:12;;;;;;;6.63;2.63;;;9.50;99.90;;;;;;4991868;28;20073;-74
2023/10/31 04:46:38;;;;;;;12.10;3.47;;;9.70;99.90;;;;;;5008507;28;20320;-72
2023/10/31 04:49:04;;;;;;;8.25;3.03;;;9.60;99.90;;;;;;4975707;28;20041;-74
2023/10/31 04:51:37;;;;;;;8.70;2.85;;;9.60;99.90;;;;;;4990754;28;20039;-74
2023/10/31 04:54:03;;;;;;;9.13;2.88;;;9.80;99.90;;;;;;4985487;28;20481;-75
2023/10/31 04:56:29;;;;;;;6.22;2.45;;;9.70;99.90;;;;;;4993897;28;20520;-75
2023/10/31 04:58:54;;;;;;;8.95;2.65;;;9.80;99.90;;;;;;4992020;28;20102;-73
2023/10/31 05:01:20;;;;;;;4.55;2.00;;;9.70;99.90;;;;;;4979323;28;20056;-76
2023/10/31 05:03:45;;;;;;;8.30;2.28;;;9.70;99.90;;;;;;4983311;28;20351;-75
2023/10/31 05:06:11;;;;;;;7.05;1.90;;;9.80;99.90;;;;;;4983380;28;20057;-73
2023/10/31 05:08:37;;;;;;;5.53;1.80;;;9.70;99.90;;;;;;4991903;28;20041;-73
2023/10/31 05:11:03;;;;;;;6.40;1.92;;;9.80;99.90;;;;;;4990203;28;20038;-75
2023/10/31 05:13:28;;;;;;;6.45;1.70;;;9.90;99.90;;;;;;4988706;28;20473;-72
2023/10/31 05:15:54;;;;;;;7.70;2.28;;;9.80;99.90;;;;;;4990586;28;20133;-72
2023/10/31 05:18:20;;;;;;;4.03;1.80;;;9.80;99.90;;;;;;5005811;28;20100;-74
2023/10/31 05:20:45;;;;;;;4.85;1.85;;;9.60;99.90;;;;;;4998502;28;20095;-74
2023/10/31 05:23:11;;;;;;;5.55;1.80;;;9.70;99.90;;;;;;4978617;28;20149;-74
2023/10/31 05:25:37;;;;;;;3.45;1.30;;;9.70;99.90;;;;;;4974251;28;20153;-75
2023/10/31 05:28:03;;;;;;;8.60;2.20;;;9.80;99.90;;;;;;4990761;28;20192;-74
2023/10/31 05:30:29;;;;;;;3.22;1.27;;;9.60;99.90;;;;;;4972410;28;20137;-75
2023/10/31 05:32:54;;;;;;;3.90;1.33;;;9.80;99.90;;;;;;4988753;28;20413;-73
2023/10/31 05:35:21;;;;;;;3.03;0.90;;;9.70;99.90;;;;;;4985440;28;20041;-72
2023/10/31 05:37:46;;;;;;;6.72;1.30;;;9.60;99.90;;;;;;4989771;28;20399;-77
2023/10/31 05:40:13;;;;;;;6.32;1.40;;;9.80;99.90;;;;;;4993042;28;20038;-75
2023/10/31 05:42:39;;;;;;;6.85;1.33;;;9.60;99.90;;;;;;4985766;28;20037;-75
2023/10/31 05:45:05;;;;;;;3.42;1.08;;;9.60;99.90;;;;;;4994981;28;20042;-72
2023/10/31 05:47:30;;;;;;;4.90;1.00;;;9.60;99.90;;;;;;4973768;28;20140;-77
2023/10/31 05:49:57;;;;;;;5.25;1.30;;;9.80;99.90;;;;;;4989285;28;20188;-75
2023/10/31 05:52:23;;;;;;;3.15;1.02;;;9.50;99.90;;;;;;4993015;28;20046;-77
2023/10/31 05:54:48;;;;;;;4.65;1.38;;;9.60;99.90;;;;;;4991816;28;20824;-74
2023/10/31 05:57:14;;;;;;;4.68;1.20;;;9.70;99.90;;;;;;4975748;28;20125;-81
2023/10/31 05:59:39;;;;;;;3.30;1.08;;;9.70;99.90;;;;;;4993659;28;20041;-75
2023/10/31 06:02:05;;;;;;;6.20;1.08;;;9.50;99.90;;;;;;4989392;28;20052;-78
2023/10/31 06:04:30;;;;;;;4.60;1.08;;;9.50;99.90;;;;;;4977974;28;20128;-77
2023/10/31 06:06:56;;;;;;;2.10;1.00;;;9.50;99.90;;;;;;5007163;28;20108;-74
2023/10/31 06:09:21;;;;;;;5.53;0.82;;;9.70;99.90;;;;;;4980136;28;20471;-73
2023/10/31 06:11:47;;;;;;;2.13;0.80;;;9.70;99.90;;;;;;4982182;28;20041;-79
2023/10/31 06:14:13;;;;;;;4.03;1.17;;;9.40;99.90;;;;;;4992408;28;20048;-75
2023/10/31 06:16:45;;;;;;;6.55;1.30;;;9.50;99.90;;;;;;4967163;28;20504;-74
2023/10/31 06:19:11;;;;;;;1.88;0.90;;;9.40;99.90;;;;;;5006115;28;20508;-76
2023/10/31 06:21:37;;;;;;;3.28;1.08;;;9.40;99.90;;;;;;4996977;28;20065;-81
2023/10/31 06:24:03;;;;;;;2.92;1.00;;;9.50;99.90;;;;;;4978153;28;20501;-78
2023/10/31 06:26:29;;;;;;;3.33;1.20;;;9.70;99.90;;;;;;4963465;28;20050;-75
2023/10/31 06:28:55;;;;;;;2.42;1.02;;;9.40;99.90;;;;;;4995439;28;20121;-77
2023/10/31 06:31:20;;;;;;;2.35;1.05;;;9.60;99.90;;;;;;4972397;28;20053;-76
2023/10/31 06:33:46;;;;;;;3.53;1.33;;;9.60;99.90;;;;;;4984897;28;20061;-74
2023/10/31 06:36:12;;;;;;;4.05;1.20;;;9.60;99.90;;;;;;4983824;28;20042;-74
2023/10/31 06:38:37;;;;;;;4.57;1.30;;;9.60;99.90;;;;;;4987428;28;20116;-77
2023/10/31 06:41:03;;;;;;;6.65;1.02;;;9.70;99.90;;;;;;4970965;28;20121;-75
2023/10/31 06:43:29;;;;;;;2.78;0.85;;;9.60;99.90;;;;;;4990325;28;20127;-78
2023/10/31 06:45:54;;;;;;;3.80;1.20;;;9.60;99.90;;;;;;4973618;28;20539;-75
2023/10/31 06:48:20;;;;;;;4.90;1.10;;;9.60;99.90;;;;;;4983605;28;20465;-78
2023/10/31 06:50:46;;;;;;;3.35;1.30;;;9.60;99.90;;;;;;4986807;28;20029;-74
2023/10/31 06:53:11;;;;;;;4.18;1.50;;;9.60;99.90;;;;;;4983774;28;20466;-75
2023/10/31 06:55:37;;;;;;;3.35;1.75;;;9.40;99.90;;;;;;4983592;28;20393;-77
2023/10/31 06:58:03;;;;;;;3.22;1.45;;;9.40;99.90;;;;;;4966983;28;20034;-76
2023/10/31 07:00:29;;;;;;;7.63;2.30;;;9.50;99.90;;;;;;4982328;28;20045;-75
2023/10/31 07:02:54;;;;;;;6.65;2.10;;;9.60;99.90;;;;;;4975531;28;20130;-76
2023/10/31 07:05:20;;;;;;;4.22;2.47;;;9.70;99.90;;;;;;4983811;28;20356;-74
2023/10/31 07:07:47;;;;;;;5.95;2.78;;;9.50;99.90;;;;;;4982902;28;20050;-74
2023/10/31 07:10:12;;;;;;;5.97;3.00;;;9.70;99.90;;;;;;4985950;28;20081;-75
2023/10/31 07:12:38;;;;;;;6.03;3.08;;;9.70;99.90;;;;;;4982561;28;20065;-75
2023/10/31 07:15:05;;;;;;;7.03;3.08;;;9.60;99.90;;;;;;4967443;28;20042;-77
2023/10/31 07:17:30;;;;;;;6.88;3.97;;;9.80;99.90;;;;;;4965452;28;20069;-75
2023/10/31 07:19:56;;;;;;;10.20;4.65;;;9.70;99.90;;;;;;4984275;28;20085;-75
2023/10/31 07:22:24;;;;;;;9.65;3.80;;;9.60;99.90;;;;;;4985282;28;20136;-78
2023/10/31 07:24:51;;;;;;;8.15;3.97;;;9.60;99.90;;;;;;4982793;28;20065;-76
2023/10/31 07:27:17;;;;;;;11.35;4.25;;;10.00;99.90;;;;;;4974867;28;20042;-74
2023/10/31 07:29:42;;;;;;;8.50;3.92;;;9.80;99.90;;;;;;4967157;28;20042;-75
2023/10/31 07:32:09;;;;;;;7.18;4.25;;;9.70;99.90;;;;;;4962245;28;20494;-75
2023/10/31 07:34:34;;;;;;;7.00;4.22;;;9.70;99.90;;;;;;4986852;28;20176;-74
2023/10/31 07:37:00;;;;;;;11.05;4.00;;;9.90;99.90;;;;;;4969226;28;20046;-74
2023/10/31 07:39:26;;;;;;;8.70;4.75;;;10.00;99.90;;;;;;4986387;28;20049;-74
2023/10/31 07:41:51;;;;;;;10.05;4.45;;;10.00;99.90;;;;;;4982660;28;20042;-75
2023/10/31 07:44:17;;;;;;;7.35;4.22;;;10.10;99.90;;;;;;4982929;28;20105;-73
2023/10/31 07:46:43;;;;;;;11.98;4.22;;;10.00;99.90;;;;;;4967440;28;20394;-74
2023/10/31 07:49:08;;;;;;;15.35;4.72;;;10.10;99.90;;;;;;4990558;28;20395;-77
2023/10/31 07:51:34;;;;;;;15.23;4.65;;;10.20;99.90;;;;;;4981157;28;20046;-74
2023/10/31 07:53:59;;;;;;;10.95;4.13;;;10.10;99.90;;;;;;4963498;28;20034;-73
2023/10/31 07:56:25;;;;;;;9.88;3.92;;;10.10;99.90;;;;;;4962936;28;20100;-71
2023/10/31 07:58:51;;;;;;;8.05;3.75;;;10.10;99.90;;;;;;4984050;28;20077;-74
2023/10/31 08:01:18;;;;;;;7.20;4.10;;;10.20;99.90;;;;;;4976512;28;20065;-75
2023/10/31 08:03:43;;;;;;;7.18;3.67;;;10.10;99.90;;;;;;4980444;28;20055;-74
2023/10/31 08:06:11;;;;;;;8.82;3.67;;;10.30;99.90;;;;;;4982108;28;20042;-70
2023/10/31 08:08:36;;;;;;;8.43;3.45;;;10.10;99.90;;;;;;4982808;28;20045;-75
2023/10/31 08:11:03;;;;;;;8.48;3.15;;;10.00;99.90;;;;;;4980011;28;20062;-75
2023/10/31 08:13:29;;;;;;;8.82;3.25;;;10.10;99.90;;;;;;4985716;28;20050;-76
2023/10/31 08:15:55;;;;;;;8.25;3.53;;;10.20;99.90;;;;;;4981418;28;20133;-75
2023/10/31 08:18:22;;;;;;;8.13;3.00;;;10.30;99.90;;;;;;4979114;28;20141;-75
2023/10/31 08:20:50;;;;;;;10.07;3.10;;;10.20;99.90;;;;;;4983850;28;20423;-76
2023/10/31 08:23:16;;;;;;;5.80;2.42;;;10.40;99.90;;;;;;4970355;28;20110;-79
2023/10/31 08:25:42;;;;;;;7.15;2.08;;;10.20;99.90;;;;;;4984643;28;20039;-73
2023/10/31 08:28:08;;;;;;;4.05;2.05;;;10.40;99.90;;;;;;4965680;28;20045;-73
2023/10/31 08:30:33;;;;;;;5.55;1.73;;;10.50;99.90;;;;;;4983642;28;20367;-75
2023/10/31 08:32:59;;;;;;;6.40;1.90;;;10.50;99.90;;;;;;4965815;28;20051;-73
2023/10/31 08:35:25;;;;;;;7.07;2.25;;;10.40;99.90;;;;;;4983759;28;20042;-80
2023/10/31 08:37:50;;;;;;;6.13;1.38;;;10.50;99.90;;;;;;4963460;28;20072;-72
2023/10/31 08:40:16;;;;;;;3.35;1.15;;;10.70;99.90;;;;;;4966657;28;20046;-75
2023/10/31 08:42:41;;;;;;;4.32;1.35;;;10.40;99.90;;;;;;4974228;28;20470;-71
2023/10/31 08:45:08;;;;;;;5.88;1.30;;;10.60;99.90;;;;;;4970856;28;20038;-79
2023/10/31 08:47:33;;;;;;;6.15;1.95;;;10.60;99.90;;;;;;4985379;28;20414;-75
2023/10/31 08:49:59;;;;;;;2.70;1.08;;;10.70;99.90;;;;;;4989086;28;20129;-75
2023/10/31 08:52:25;;;;;;;5.65;1.02;;;10.60;99.90;;;;;;4982150;28;20489;-76
2023/10/31 08:54:50;;;;;;;7.30;1.10;;;10.60;99.90;;;;;;4986652;28;20070;-75
2023/10/31 08:57:16;;;;;;;2.80;0.88;;;10.60;99.90;;;;;;4974880;28;20046;-71
2023/10/31 08:59:41;;;;;;;4.47;1.00;;;10.60;99.90;;;;;;4987503;28;20132;-76
2023/10/31 09:02:07;;;;;;;3.47;0.90;;;10.60;99.90;;;;;;4986757;28;20077;-75
2023/10/31 09:04:32;;;;;;;2.08;0.90;;;10.60;99.90;;;;;;4986078;28;20336;-75
2023/10/31 09:06:58;;;;;;;4.20;1.10;;;10.60;99.90;;;;;;4990202;28;20363;-72
2023/10/31 09:09:23;;;;;;;2.90;0.82;;;10.80;99.90;;;;;;4985757;28;20158;-75
2023/10/31 09:11:49;;;;;;;4.53;0.80;;;10.90;99.90;;;;;;4982293;28;20084;-74
2023/10/31 09:14:15;;;;;;;4.90;1.02;;;10.90;99.90;;;;;;4985290;28;20042;-71
2023/10/31 09:16:40;;;;;;;3.03;0.70;;;10.80;99.90;;;;;;4986549;28;20042;-73
2023/10/31 09:19:06;;;;;;;3.45;0.50;;;10.90;99.90;;;;;;4987753;28;20053;-75
2023/10/31 09:21:31;;;;;;;2.40;0.80;;;10.80;99.90;;;;;;4987065;28;20137;-75
2023/10/31 09:23:57;;;;;;;3.72;0.73;;;10.80;99.90;;;;;;4984821;28;20042;-73
2023/10/31 09:26:22;;;;;;;0.90;0.50;;;10.90;99.90;;;;;;4986746;28;20045;-73
2023/10/31 09:28:51;;;;;;;0.88;0.40;;;10.80;99.90;;;;;;4973456;28;20125;-75
2023/10/31 09:31:17;;;;;;;1.60;0.47;;;11.10;99.90;;;;;;4986703;28;20383;-73
2023/10/31 09:33:44;;;;;;;1.00;0.40;;;11.00;99.90;;;;;;4971791;28;20080;-74
2023/10/31 09:36:10;;;;;;;2.03;0.40;;;10.90;99.90;;;;;;4989901;28;20061;-73
2023/10/31 09:38:35;;;;;;;2.30;0.60;;;10.90;99.90;;;;;;4985789;28;20117;-73
2023/10/31 09:41:01;;;;;;;1.38;0.47;;;10.80;99.90;;;;;;4989128;28;20046;-73
2023/10/31 09:43:27;;;;;;;1.25;0.40;;;10.90;99.90;;;;;;4986133;28;20658;-71
2023/10/31 09:45:52;;;;;;;2.10;0.40;;;10.90;99.90;;;;;;4986198;28;20034;-78
2023/10/31 09:48:19;;;;;;;3.47;0.50;;;11.10;99.90;;;;;;4970364;28;20042;-74
2023/10/31 09:50:47;;;;;;;0.73;0.25;;;11.20;99.90;;;;;;4985617;28;20435;-75
2023/10/31 09:53:16;;;;;;;1.55;0.50;;;11.40;99.90;;;;;;4971336;28;20450;-78
2023/10/31 09:55:42;;;;;;;2.97;0.40;;;11.20;99.90;;;;;;4985896;28;20453;-78
2023/10/31 09:58:08;;;;;;;4.68;0.52;;;11.30;99.90;;;;;;4986734;28;20545;-76
2023/10/31 10:00:36;;;;;;;4.85;0.70;;;11.20;99.90;;;;;;4986579;28;20109;-78
2023/10/31 10:03:03;;;;;;;3.25;0.75;;;11.30;99.90;;;;;;4986190;28;20052;-76
2023/10/31 10:05:31;;;;;;;5.43;0.70;;;11.40;99.90;;;;;;4969750;28;20058;-75
2023/10/31 10:07:57;;;;;;;6.38;0.50;;;11.40;99.90;;;;;;5004239;28;20042;-74
2023/10/31 10:10:24;;;;;;;4.05;0.50;;;11.10;99.90;;;;;;4971975;28;20034;-75
2023/10/31 10:12:52;;;;;;;4.53;0.40;;;11.30;99.90;;;;;;4986532;28;20038;-73
2023/10/31 10:15:17;;;;;;;4.18;0.55;;;11.20;99.90;;;;;;4986391;28;20486;-73
2023/10/31 10:17:53;;;;;;;3.65;0.30;;;11.20;99.90;;;;;;4985412;28;20092;-77
2023/10/31 10:20:19;;;;;;;5.35;0.50;;;11.20;99.90;;;;;;4985093;28;20042;-77
2023/10/31 10:22:45;;;;;;;6.63;0.55;;;11.40;99.90;;;;;;4987233;28;20038;-78
2023/10/31 10:25:16;;;;;;;5.13;0.50;;;11.40;99.90;;;;;;4983169;28;20164;-73
2023/10/31 10:27:42;;;;;;;4.28;0.50;;;11.10;99.90;;;;;;4974173;28;20074;-75
2023/10/31 10:30:09;;;;;;;3.35;0.60;;;11.30;99.90;;;;;;4966022;28;20097;-77
2023/10/31 10:32:34;;;;;;;3.25;0.38;;;11.00;99.90;;;;;;4985348;28;20057;-73
2023/10/31 10:35:00;;;;;;;4.47;0.55;;;11.10;99.90;;;;;;4978483;28;20557;-74
2023/10/31 10:37:30;;;;;;;2.65;0.40;;;11.20;99.90;;;;;;4981894;28;20449;-73
2023/10/31 10:39:56;;;;;;;2.10;0.40;;;11.20;99.90;;;;;;4974630;28;20042;-75
2023/10/31 10:42:44;;;;;;;1.58;0.40;;;11.30;99.90;;;;;;4977006;28;20404;-74
2023/10/31 10:45:13;;;;;;;2.70;0.40;;;11.60;99.90;;;;;;4987750;28;20057;-75
2023/10/31 10:47:39;;;;;;;2.08;0.40;;;11.30;99.90;;;;;;4981820;28;20042;-73
2023/10/31 10:50:06;;;;;;;2.38;0.73;;;11.50;99.90;;;;;;4981314;28;20073;-73
2023/10/31 10:53:18;;;;;;;2.17;0.52;;;11.40;99.90;;;;;;4984627;28;20030;-76
2023/10/31 10:55:46;;;;;;;2.03;0.40;;;11.50;99.90;;;;;;4927127;29;20051;-74
2023/10/31 10:58:35;;;;;;;1.88;0.50;;;11.70;99.90;;;;;;4913906;29;20065;-73
2023/10/31 11:01:02;;;;;;;5.20;0.70;;;11.60;99.90;;;;;;4966872;28;20165;-73
2023/10/31 11:03:30;;;;;;;2.60;0.43;;;11.70;99.90;;;;;;4970626;28;20129;-71
2023/10/31 11:05:55;;;;;;;4.63;0.45;;;11.70;99.90;;;;;;4988033;28;20110;-75
2023/10/31 11:08:24;;;;;;;4.50;0.50;;;11.80;99.90;;;;;;4984864;28;20037;-74
2023/10/31 11:10:50;;;;;;;6.07;0.60;;;12.00;99.90;;;;;;4989714;28;20037;-72
2023/10/31 11:13:16;;;;;;;5.55;0.60;;;12.00;99.90;;;;;;4984152;28;20044;-73
2023/10/31 11:15:43;;;;;;;2.47;0.38;;;11.80;99.90;;;;;;4986782;28;20049;-71
2023/10/31 11:18:10;;;;;;;2.33;0.38;;;11.50;99.90;;;;;;4987343;28;20046;-74
2023/10/31 11:20:36;;;;;;;1.77;0.52;;;11.50;99.90;;;;;;4986520;28;20042;-72
2023/10/31 11:23:06;;;;;;;3.00;0.40;;;11.60;99.90;;;;;;4989950;28;20041;-72
2023/10/31 11:25:32;;;;;;;1.50;0.40;;;11.50;99.90;;;;;;4991657;28;20128;-75
2023/10/31 11:28:14;;;;;;;3.30;0.50;;;11.30;99.90;;;;;;4964478;28;20075;-73
2023/10/31 11:30:40;;;;;;;2.67;0.50;;;11.60;99.90;;;;;;4983241;28;20044;-74
2023/10/31 11:33:11;;;;;;;1.80;0.40;;;11.70;99.90;;;;;;4993376;28;20096;-74
2023/10/31 11:35:39;;;;;;;2.40;0.50;;;11.70;99.90;;;;;;4990419;28;20153;-74
2023/10/31 11:38:11;;;;;;;3.70;0.47;;;11.70;99.90;;;;;;4990398;28;20100;-74
2023/10/31 11:40:46;;;;;;;3.28;0.70;;;11.50;99.90;;;;;;4989405;28;20133;-73
2023/10/31 11:43:11;;;;;;;1.38;0.40;;;11.40;99.90;;;;;;4986372;28;20091;-72
2023/10/31 11:45:47;;;;;;;1.63;0.30;;;11.50;99.90;;;;;;4987794;28;20449;-73
2023/10/31 11:48:14;;;;;;;2.92;0.30;;;11.50;99.90;;;;;;4980860;28;20077;-73
2023/10/31 11:50:40;;;;;;;2.78;0.60;;;11.40;99.90;;;;;;4974974;28;20044;-74
2023/10/31 11:53:16;;;;;;;0.90;0.20;;;11.30;99.90;;;;;;4970478;28;20038;-74
2023/10/31 11:55:43;;;;;;;3.13;0.45;;;11.40;99.90;;;;;;4976653;28;20043;-73
2023/10/31 11:58:20;;;;;;;1.63;0.40;;;11.20;99.90;;;;;;4989412;28;20038;-73
2023/10/31 12:00:48;;;;;;;2.35;0.43;;;11.10;99.90;;;;;;4987739;28;20486;-74
2023/10/31 12:03:16;;;;;;;6.57;0.77;;;11.20;99.90;;;;;;4982468;28;20141;-73
2023/10/31 12:05:53;;;;;;;5.15;0.57;;;11.20;99.90;;;;;;4984034;28;20070;-74
2023/10/31 12:08:33;;;;;;;3.22;0.50;;;11.20;99.90;;;;;;4971077;28;20128;-75
2023/10/31 12:11:08;;;;;;;3.33;0.55;;;11.40;99.90;;;;;;4982991;28;20977;-74
2023/10/31 12:13:35;;;;;;;3.58;0.50;;;11.50;99.90;;;;;;4985738;28;20188;-72
2023/10/31 12:16:01;;;;;;;2.78;0.55;;;11.50;99.90;;;;;;4986039;28;20144;-71
2023/10/31 12:18:29;;;;;;;3.20;0.40;;;11.50;99.90;;;;;;4986055;28;20226;-74
2023/10/31 12:20:56;;;;;;;5.20;0.93;;;11.50;99.90;;;;;;4986919;28;20062;-74
2023/10/31 12:23:21;;;;;;;2.83;0.55;;;11.50;99.90;;;;;;4987774;28;20049;-74
2023/10/31 12:25:52;;;;;;;3.92;0.63;;;11.60;99.90;;;;;;4991138;28;20426;-73
2023/10/31 12:28:18;;;;;;;1.98;0.68;;;11.60;99.90;;;;;;4984023;28;20042;-74
2023/10/31 12:30:46;;;;;;;1.63;0.50;;;11.40;99.90;;;;;;4983017;28;20748;-73
2023/10/31 12:33:12;;;;;;;0.98;0.40;;;11.50;99.90;;;;;;4972344;28;20132;-73
2023/10/31 12:35:38;;;;;;;4.90;0.98;;;11.50;99.90;;;;;;4989615;28;20491;-73
2023/10/31 12:38:04;;;;;;;4.65;0.52;;;11.60;99.90;;;;;;4979901;28;20092;-73
2023/10/31 12:40:30;;;;;;;1.67;0.55;;;11.50;99.90;;;;;;4986668;28;20116;-74
2023/10/31 12:42:55;;;;;;;5.82;0.70;;;11.40;99.90;;;;;;4990332;28;20086;-72
2023/10/31 12:45:21;;;;;;;2.83;0.57;;;11.20;99.90;;;;;;4970625;28;20131;-72
2023/10/31 12:48:12;;;;;;;2.90;0.60;;;11.40;99.90;;;;;;4987192;28;20038;-70